Time;durP1;ratioP1;P1;durP2;ratioP2;P2;SDS_P1;SDS_P2;PMS_P1;PMS_P2;Temp;Humidity;BMP_temperature;BMP_pressure;BME280_temperature;BME280_humidity;BME280_pressure;Samples;Min_cycle;Max_cycle;Signal;HPM_P1;HPM_P2
2021/05/19 00:02:43;;;;;;;1.02;0.77;;;;;;;8.54;77.84;99742.66;10461075;28;20041;-67
2021/05/19 00:07:44;;;;;;;1.50;0.90;;;;;;;8.77;77.40;99744.59;10460378;28;20045;-67
2021/05/19 00:12:46;;;;;;;0.93;0.93;;;;;;;8.74;77.43;99743.81;10460928;28;20053;-67
2021/05/19 00:17:48;;;;;;;1.02;1.00;;;;;;;8.65;77.40;99752.81;10460048;28;20040;-68
2021/05/19 00:22:49;;;;;;;1.60;0.95;;;;;;;8.66;77.30;99754.53;10443022;28;20049;-68
2021/05/19 00:27:52;;;;;;;1.98;1.10;;;;;;;8.65;77.19;99755.44;10473307;22;20524;-69
2021/05/19 00:32:54;;;;;;;2.45;1.20;;;;;;;8.66;77.91;99762.38;10460143;28;20044;-69
2021/05/19 00:37:56;;;;;;;2.05;1.00;;;;;;;8.83;76.79;99757.50;10459503;28;20127;-69
2021/05/19 00:42:58;;;;;;;1.75;1.10;;;;;;;9.19;75.65;99749.44;10460105;28;20041;-70
2021/05/19 00:48:00;;;;;;;1.38;1.00;;;;;;;8.98;77.61;99748.31;10458717;28;20414;-68
2021/05/19 00:53:03;;;;;;;1.35;0.82;;;;;;;9.02;78.09;99747.34;10459253;28;20049;-68
2021/05/19 00:58:04;;;;;;;1.20;1.10;;;;;;;9.02;77.84;99747.34;10459178;28;20037;-69
2021/05/19 01:03:12;;;;;;;0.80;0.80;;;;;;;9.23;76.58;99752.84;10458839;28;20123;-69
2021/05/19 01:13:36;;;;;;;1.95;1.20;;;;;;;9.12;77.16;99744.44;10460353;28;20048;-69
2021/05/19 01:18:40;;;;;;;2.90;1.52;;;;;;;8.99;77.66;99751.84;10458892;28;20406;-68
2021/05/19 01:23:41;;;;;;;2.60;2.30;;;;;;;9.02;77.17;99743.84;10460146;28;20067;-68
2021/05/19 01:28:43;;;;;;;3.10;2.90;;;;;;;9.05;77.05;99747.25;10459417;28;20467;-69
2021/05/19 01:33:49;;;;;;;2.00;1.90;;;;;;;9.24;76.49;99754.56;10460050;28;20410;-69
2021/05/19 01:38:51;;;;;;;2.88;2.67;;;;;;;9.34;75.90;99750.72;10457541;28;20063;-69
2021/05/19 01:43:54;;;;;;;3.00;2.80;;;;;;;9.18;76.95;99747.75;10457656;28;20107;-69
2021/05/19 01:49:06;;;;;;;2.78;2.58;;;;;;;9.15;76.56;99749.59;10457463;28;20057;-68
2021/05/19 01:54:09;;;;;;;3.10;2.90;;;;;;;9.14;77.28;99750.50;10458621;28;20037;-68
2021/05/19 01:59:11;;;;;;;3.67;3.42;;;;;;;9.03;77.29;99758.69;10458334;28;20033;-68
2021/05/19 02:04:15;;;;;;;3.88;3.58;;;;;;;9.01;77.60;99760.50;10456474;28;20136;-69
2021/05/19 02:09:24;;;;;;;3.60;3.30;;;;;;;9.00;77.33;99757.03;10456514;28;20045;-69
2021/05/19 02:14:28;;;;;;;3.85;3.65;;;;;;;9.28;77.06;99766.66;10457232;28;20056;-68
2021/05/19 02:19:32;;;;;;;4.53;4.22;;;;;;;9.00;77.28;99774.53;10439852;28;20041;-68
2021/05/19 02:24:36;;;;;;;3.60;3.35;;;;;;;9.06;77.20;99769.94;10456928;28;20473;-70
2021/05/19 02:29:39;;;;;;;4.10;3.80;;;;;;;9.04;77.35;99769.13;10456195;28;20477;-69
2021/05/19 02:34:41;;;;;;;3.78;3.55;;;;;;;9.51;75.58;99782.56;10457141;28;20063;-69
2021/05/19 02:39:43;;;;;;;3.88;3.60;;;;;;;9.15;77.22;99778.44;10457682;28;20052;-69
2021/05/19 02:44:45;;;;;;;4.00;3.70;;;;;;;9.38;76.65;99780.34;10458145;28;20045;-69
2021/05/19 02:49:47;;;;;;;4.07;3.75;;;;;;;9.37;76.36;99783.91;10455992;28;20136;-68
2021/05/19 02:54:48;;;;;;;3.67;3.47;;;;;;;9.25;76.85;99782.50;10458633;28;20699;-68
2021/05/19 02:59:50;;;;;;;4.72;4.25;;;;;;;9.26;76.93;99779.00;10457975;28;20033;-68
2021/05/19 03:04:52;;;;;;;4.53;4.22;;;;;;;9.45;76.34;99782.75;10458575;28;20075;-68
2021/05/19 03:09:53;;;;;;;5.60;4.50;;;;;;;9.19;76.94;99785.31;10456297;28;20068;-69
2021/05/19 03:14:55;;;;;;;4.60;4.30;;;;;;;9.02;78.18;99794.53;10458447;28;20045;-68
2021/05/19 03:19:57;;;;;;;6.43;4.90;;;;;;;9.20;77.87;99797.50;10460961;28;20049;-69
2021/05/19 03:24:59;;;;;;;5.85;5.45;;;;;;;9.19;78.18;99794.03;10465417;28;20107;-69
2021/05/19 03:30:01;;;;;;;5.15;4.82;;;;;;;9.14;78.32;99788.06;10446344;28;20049;-69
2021/05/19 03:35:05;;;;;;;5.32;5.00;;;;;;;9.24;78.42;99801.75;10463306;28;20069;-69
2021/05/19 03:40:10;;;;;;;6.13;5.70;;;;;;;9.43;77.78;99802.94;10462567;28;20147;-69
2021/05/19 03:45:15;;;;;;;6.85;6.35;;;;;;;9.24;78.75;99799.16;10465004;28;20441;-70
2021/05/19 03:50:19;;;;;;;6.95;6.38;;;;;;;9.26;78.35;99808.69;10463347;28;20033;-69
2021/05/19 03:55:20;;;;;;;7.85;7.25;;;;;;;9.25;78.67;99813.97;10462166;28;20469;-69
2021/05/19 04:00:29;;;;;;;7.68;7.18;;;;;;;9.27;78.57;99814.78;10463717;28;20033;-69
2021/05/19 04:05:34;;;;;;;8.20;7.60;;;;;;;9.41;78.12;99827.50;10464361;28;20064;-69
2021/05/19 04:10:36;;;;;;;8.18;7.68;;;;;;;10.20;74.29;99824.09;10463250;28;20482;-69
2021/05/19 04:15:38;;;;;;;8.32;7.72;;;;;;;10.18;74.64;99824.16;10463893;28;20124;-70
2021/05/19 04:20:40;;;;;;;9.48;8.70;;;;;;;10.05;75.50;99843.88;10463062;28;20128;-69
2021/05/19 04:25:43;;;;;;;10.50;9.27;;;;;;;10.02;75.78;99838.69;10461601;28;20049;-70
2021/05/19 04:30:44;;;;;;;8.68;8.07;;;;;;;10.01;75.79;99837.84;10462083;28;20055;-69
2021/05/19 04:35:46;;;;;;;10.02;9.35;;;;;;;10.09;75.57;99848.06;10462404;28;20044;-69
2021/05/19 04:40:48;;;;;;;9.95;9.25;;;;;;;10.13;75.68;99854.94;10463552;28;20048;-69
2021/05/19 04:45:49;;;;;;;9.93;9.25;;;;;;;10.06;75.98;99851.69;10462367;28;20132;-69
2021/05/19 04:50:51;;;;;;;10.07;9.23;;;;;;;10.28;75.48;99865.00;10461557;28;20053;-69
2021/05/19 04:55:53;;;;;;;10.13;9.43;;;;;;;10.28;75.20;99865.00;10459623;28;20420;-69
2021/05/19 05:00:55;;;;;;;9.98;9.38;;;;;;;10.16;74.65;99862.75;10461634;28;20047;-70
2021/05/19 05:05:58;;;;;;;9.32;8.70;;;;;;;10.23;74.83;99869.53;10460763;28;20409;-69
2021/05/19 05:10:59;;;;;;;11.82;11.02;;;;;;;10.26;75.27;99869.44;10459363;28;20049;-69
2021/05/19 05:16:01;;;;;;;12.00;11.20;;;;;;;10.22;75.63;99872.19;10460011;28;20057;-69
2021/05/19 05:21:04;;;;;;;10.02;9.35;;;;;;;10.42;74.37;99867.16;10459332;28;20045;-69
2021/05/19 05:26:06;;;;;;;10.77;9.98;;;;;;;10.39;74.98;99875.13;10458536;28;20041;-69
2021/05/19 05:31:08;;;;;;;9.95;9.15;;;;;;;10.75;73.51;99870.38;10458890;28;20124;-69
2021/05/19 05:36:10;;;;;;;11.73;9.10;;;;;;;10.64;73.54;99876.94;10459300;28;20045;-69
2021/05/19 05:41:12;;;;;;;9.68;8.98;;;;;;;10.47;74.73;99877.50;10458559;28;20494;-69
2021/05/19 05:46:14;;;;;;;9.95;9.25;;;;;;;10.51;74.26;99892.28;10459757;28;20084;-69
2021/05/19 05:51:15;;;;;;;8.65;8.05;;;;;;;10.60;73.59;99903.31;10459891;28;20135;-70
2021/05/19 05:56:17;;;;;;;7.45;6.85;;;;;;;10.83;73.45;99904.31;10459074;28;20045;-70
2021/05/19 06:01:19;;;;;;;8.23;7.70;;;;;;;11.06;73.50;99906.97;10460280;28;20480;-70
2021/05/19 06:06:21;;;;;;;9.18;8.48;;;;;;;10.83;73.81;99905.16;10459535;28;20080;-70
2021/05/19 06:11:22;;;;;;;9.82;9.13;;;;;;;11.01;73.01;99915.94;10459654;28;20045;-70
2021/05/19 06:16:24;;;;;;;9.45;8.82;;;;;;;11.20;73.28;99911.75;10459168;28;20094;-69
2021/05/19 06:21:25;;;;;;;9.65;8.80;;;;;;;11.28;72.47;99917.56;10459514;28;20041;-69
2021/05/19 06:26:27;;;;;;;9.57;8.88;;;;;;;11.08;72.83;99920.09;10464724;22;20042;-69
2021/05/19 06:31:29;;;;;;;9.40;8.75;;;;;;;11.34;72.04;99911.25;10435866;28;20045;-69
2021/05/19 06:36:32;;;;;;;9.02;8.43;;;;;;;11.42;71.79;99910.94;10420827;28;20128;-69
2021/05/19 06:41:33;;;;;;;8.40;7.80;;;;;;;11.58;70.83;99918.22;10417806;28;20517;-69
2021/05/19 06:46:35;;;;;;;9.77;8.98;;;;;;;11.29;71.25;99924.59;10420443;28;20053;-68
2021/05/19 06:51:38;;;;;;;9.95;9.25;;;;;;;10.79;72.78;99929.84;10419693;28;20049;-70
2021/05/19 06:56:45;;;;;;;8.60;8.00;;;;;;;10.96;72.73;99929.25;10426885;28;20065;-69
2021/05/19 07:01:47;;;;;;;8.10;7.55;;;;;;;11.01;72.67;99926.47;10423474;28;20038;-69
2021/05/19 07:06:49;;;;;;;7.22;6.72;;;;;;;10.73;72.44;99932.69;10423533;28;20072;-69
2021/05/19 07:11:52;;;;;;;7.32;6.80;;;;;;;10.73;72.79;99934.47;10424215;28;20076;-69
2021/05/19 07:16:54;;;;;;;5.70;5.30;;;;;;;10.87;71.92;99929.59;10423874;28;20483;-69
2021/05/19 07:21:56;;;;;;;3.53;3.22;;;;;;;10.83;70.91;99933.22;10426313;28;20037;-69
2021/05/19 07:26:58;;;;;;;3.78;3.47;;;;;;;11.01;69.86;99940.47;10425228;28;20125;-69
2021/05/19 07:32:00;;;;;;;4.60;4.20;;;;;;;10.91;70.30;99944.34;10425531;28;20418;-69
2021/05/19 07:37:01;;;;;;;4.53;4.13;;;;;;;10.76;71.00;99951.00;10425886;28;20049;-68
2021/05/19 07:42:03;;;;;;;4.53;3.97;;;;;;;10.68;70.77;99950.38;10425707;28;20088;-69
2021/05/19 07:47:05;;;;;;;5.45;4.03;;;;;;;10.73;71.27;99958.13;10425678;28;20097;-69
2021/05/19 07:52:06;;;;;;;5.60;5.10;;;;;;;10.57;73.56;99957.75;10424826;28;20071;-68
2021/05/19 07:57:12;;;;;;;6.05;5.60;;;;;;;10.57;73.85;99956.00;10422956;28;20766;-67
2021/05/19 08:02:15;;;;;;;6.68;6.28;;;;;;;10.59;73.97;99961.22;10423604;28;20033;-68
2021/05/19 08:07:16;;;;;;;6.65;6.15;;;;;;;10.62;75.52;99968.97;10421097;28;20084;-68
2021/05/19 08:12:16;;;;;;;7.10;6.60;;;;;;;10.80;74.76;99970.13;10423274;28;20056;-68
2021/05/19 08:17:18;;;;;;;7.40;6.90;;;;;;;10.32;75.42;99976.09;10422537;28;20080;-68
2021/05/19 08:22:19;;;;;;;7.72;7.22;;;;;;;10.44;75.90;99980.94;10420990;28;20292;-68
2021/05/19 08:27:21;;;;;;;8.55;7.95;;;;;;;10.26;76.64;99986.78;10423288;28;20053;-69
2021/05/19 08:32:23;;;;;;;7.20;6.70;;;;;;;10.16;76.70;99986.19;10425260;28;20491;-68
2021/05/19 08:37:25;;;;;;;7.97;7.45;;;;;;;10.20;76.96;99989.59;10422901;28;20067;-68
2021/05/19 08:42:27;;;;;;;7.88;7.30;;;;;;;10.38;76.61;99988.19;10421154;28;20038;-69
2021/05/19 08:47:28;;;;;;;6.70;6.20;;;;;;;10.33;75.89;99997.06;10421906;28;20049;-68
2021/05/19 08:52:30;;;;;;;3.95;3.65;;;;;;;10.44;75.48;99994.09;10418858;28;20045;-68
2021/05/19 08:57:34;;;;;;;6.43;6.00;;;;;;;10.59;76.19;99998.88;10420302;28;20051;-67
2021/05/19 09:02:37;;;;;;;6.00;5.60;;;;;;;10.72;76.81;100006.38;10420776;28;20417;-69
2021/05/19 09:07:38;;;;;;;6.88;6.38;;;;;;;10.47;76.90;100011.53;10422236;28;20451;-68
2021/05/19 09:12:40;;;;;;;4.60;4.30;;;;;;;10.73;75.21;100003.66;10420397;28;20046;-68
2021/05/19 09:17:41;;;;;;;4.95;4.65;;;;;;;10.68;75.36;100007.38;10419768;28;20132;-68
2021/05/19 09:22:45;;;;;;;5.95;5.40;;;;;;;10.83;75.72;100012.09;10420977;28;20116;-69
2021/05/19 09:27:49;;;;;;;4.80;4.50;;;;;;;10.92;76.15;100009.16;10419279;28;20049;-68
2021/05/19 09:32:51;;;;;;;4.60;4.20;;;;;;;11.20;73.28;100001.22;10418772;28;20044;-68
2021/05/19 09:37:56;;;;;;;4.20;3.90;;;;;;;11.30;74.17;100005.25;10439231;22;20044;-79
2021/05/19 09:43:02;;;;;;;4.40;4.10;;;;;;;11.55;74.38;100002.59;10429811;28;20054;-83
2021/05/19 09:48:04;;;;;;;4.45;4.15;;;;;;;11.94;72.43;100007.31;10434808;28;20053;-82
2021/05/19 09:53:07;;;;;;;4.13;3.75;;;;;;;11.97;70.35;100001.09;10435540;28;20041;-82
2021/05/19 09:58:08;;;;;;;4.47;4.05;;;;;;;12.07;72.01;99997.16;10440472;28;20065;-79
2021/05/19 10:03:15;;;;;;;3.92;3.72;;;;;;;12.30;70.89;99999.75;10437655;28;20472;-80
2021/05/19 10:08:17;;;;;;;4.88;4.32;;;;;;;12.52;71.37;99998.91;10433052;28;20053;-80
2021/05/19 10:13:19;;;;;;;4.20;3.80;;;;;;;12.60;69.62;99997.69;10434197;28;20038;-82
2021/05/19 10:18:24;;;;;;;4.45;3.90;;;;;;;12.61;69.38;99999.41;10433579;28;20096;-82
2021/05/19 10:23:39;;;;;;;4.85;4.30;;;;;;;11.65;72.29;100007.53;10439397;28;20041;-82
2021/05/19 10:28:45;;;;;;;2.80;2.60;;;;;;;11.47;70.42;100004.66;10466010;28;20041;-81
2021/05/19 10:33:54;;;;;;;2.53;2.33;;;;;;;11.01;71.31;100000.97;10473162;28;20053;-83
2021/05/19 10:39:07;;;;;;;2.60;2.40;;;;;;;11.01;71.98;100000.13;10449397;28;20068;-80
2021/05/19 10:44:11;;;;;;;2.33;1.92;;;;;;;11.54;70.23;99985.06;10450007;28;20072;-83
2021/05/19 10:49:17;;;;;;;2.13;1.90;;;;;;;11.65;69.74;99976.78;10451150;28;20060;-82
2021/05/19 11:00:11;;;;;;;2.97;2.78;;;;;;;11.70;69.86;99987.16;10449976;28;20499;-82
2021/05/19 11:05:14;;;;;;;3.25;3.03;;;;;;;11.98;71.01;99976.44;10451969;28;20052;-83
2021/05/19 11:10:26;;;;;;;2.80;2.58;;;;;;;12.35;69.46;99970.59;10455759;28;20075;-84
2021/05/19 11:16:10;;;;;;;1.92;1.83;;;;;;;12.61;67.39;99970.38;10453982;28;20064;-84
2021/05/19 11:21:17;;;;;;;2.47;1.90;;;;;;;12.77;67.95;99969.78;10452900;28;20101;-84
2021/05/19 11:26:19;;;;;;;2.53;1.65;;;;;;;13.04;65.64;99965.97;10450268;28;20056;-83
2021/05/19 11:31:22;;;;;;;1.50;1.40;;;;;;;13.41;63.74;99959.09;10435321;28;20056;-84
2021/05/19 11:36:36;;;;;;;3.15;2.95;;;;;;;14.18;70.74;99956.44;10438200;28;20056;-85
2021/05/19 11:41:37;;;;;;;3.03;2.70;;;;;;;15.18;63.40;99948.81;10450995;28;20072;-85
2021/05/19 11:46:43;;;;;;;1.52;1.38;;;;;;;14.77;57.25;99947.38;10449038;28;20109;-84
2021/05/19 11:51:44;;;;;;;1.45;1.30;;;;;;;14.84;57.76;99940.00;10446077;28;20065;-85
2021/05/19 11:56:49;;;;;;;1.52;1.42;;;;;;;14.75;58.68;99943.09;10447038;28;20073;-84
2021/05/19 12:02:04;;;;;;;2.00;1.80;;;;;;;14.70;61.60;99947.75;10447431;28;20068;-84
2021/05/19 12:07:08;;;;;;;2.17;2.03;;;;;;;13.59;64.41;99968.84;10455516;28;20017;-78
2021/05/19 12:12:13;;;;;;;5.78;4.57;;;;;;;12.23;70.05;100002.72;10476619;28;20014;-81
2021/05/19 12:17:14;;;;;;;4.60;4.10;;;;;;;11.33;72.53;99991.97;10445418;28;20052;-82
2021/05/19 12:22:20;;;;;;;5.03;4.57;;;;;;;11.19;73.52;99988.09;10417711;28;20045;-83
2021/05/19 12:27:22;;;;;;;5.25;4.90;;;;;;;11.35;74.10;99994.53;10487431;23;20107;-83
2021/05/19 12:32:29;;;;;;;5.03;4.72;;;;;;;11.30;74.47;99994.72;10398014;28;20050;-83
2021/05/19 12:37:54;;;;;;;5.65;5.25;;;;;;;11.48;75.85;99994.97;10443196;28;20057;-83
2021/05/19 12:43:01;;;;;;;5.32;4.93;;;;;;;11.69;74.22;99998.59;10424709;28;20071;-83
2021/05/19 12:48:06;;;;;;;4.68;4.28;;;;;;;12.84;70.34;99990.56;10426035;28;20044;-84
2021/05/19 12:53:09;;;;;;;4.65;4.30;;;;;;;13.75;70.20;99991.91;10426532;28;20471;-84
2021/05/19 12:58:11;;;;;;;2.08;1.88;;;;;;;13.76;63.21;100001.56;10446582;28;20514;-82
2021/05/19 13:03:30;;;;;;;2.53;1.60;;;;;;;13.21;62.55;99991.63;10426197;28;20145;-82
2021/05/19 13:08:32;;;;;;;1.50;1.40;;;;;;;13.41;61.02;99990.78;10439125;28;20491;-84
2021/05/19 13:13:44;;;;;;;1.40;1.30;;;;;;;13.51;60.27;99985.97;10436573;28;20105;-84
2021/05/19 13:18:54;;;;;;;1.45;1.35;;;;;;;13.94;61.21;99991.94;10416043;28;20414;-83
2021/05/19 13:24:04;;;;;;;1.75;1.65;;;;;;;14.14;58.92;99994.50;10415786;28;20483;-82
2021/05/19 13:29:07;;;;;;;1.80;1.55;;;;;;;14.29;60.56;99988.47;10413340;28;20140;-81
2021/05/19 13:34:20;;;;;;;1.95;1.75;;;;;;;13.81;60.86;99986.34;10421757;28;20034;-80
2021/05/19 13:39:27;;;;;;;2.38;2.17;;;;;;;13.57;59.85;99986.53;10450605;28;20045;-79
2021/05/19 13:44:29;;;;;;;;;;;;;;;13.60;59.56;99983.78;10465207;28;20073;-79
2021/05/19 13:49:32;;;;;;;3.40;2.10;;;;;;;13.63;60.08;99986.28;10462273;28;19928;-80
2021/05/19 13:54:40;;;;;;;2.28;2.08;;;;;;;13.67;60.13;99989.63;10446900;28;20049;-82
2021/05/19 13:59:42;;;;;;;2.08;1.98;;;;;;;13.88;59.82;99979.88;10435508;28;20113;-80
2021/05/19 14:04:43;;;;;;;1.30;1.20;;;;;;;14.53;57.39;99981.19;10432684;28;20045;-81
2021/05/19 14:09:45;;;;;;;1.60;1.45;;;;;;;14.71;54.89;99989.16;10431291;28;20037;-82
2021/05/19 14:30:16;;;;;;;1.10;1.00;;;;;;;14.93;52.21;99970.44;10425379;28;20084;-82
2021/05/19 14:35:39;;;;;;;1.70;1.40;;;;;;;14.74;50.89;99974.00;10423181;28;20049;-82
2021/05/19 14:47:19;;;;;;;1.02;0.93;;;;;;;15.03;51.55;99972.50;10440727;28;20114;-81
2021/05/19 15:02:25;;;;;;;1.40;1.30;;;;;;;15.25;50.58;99974.06;10445103;28;20166;-83
2021/05/19 15:07:28;;;;;;;1.50;1.40;;;;;;;14.78;51.99;99980.81;10437224;28;20067;-83
2021/05/19 15:12:32;;;;;;;2.58;2.42;;;;;;;14.30;54.81;99979.63;10404930;28;20052;-83
2021/05/19 15:17:34;;;;;;;2.58;2.47;;;;;;;15.15;51.68;99968.38;10429727;28;20057;-81
2021/05/19 15:22:36;;;;;;;1.90;1.80;;;;;;;15.59;50.88;99968.69;10430259;28;20101;-81
2021/05/19 15:27:41;;;;;;;3.60;3.30;;;;;;;15.28;51.47;99966.81;10443336;28;20076;-81
2021/05/19 15:32:43;;;;;;;2.42;2.22;;;;;;;15.44;50.40;99960.69;10424341;28;20038;-81
2021/05/19 15:37:44;;;;;;;1.83;1.70;;;;;;;17.40;48.39;99964.56;10451553;28;20037;-82
2021/05/19 15:42:47;;;;;;;1.70;1.60;;;;;;;17.81;45.53;99957.66;10454144;28;20076;-81
2021/05/19 15:47:57;;;;;;;3.15;1.58;;;;;;;16.46;48.41;99951.56;10440273;28;20049;-82
2021/05/19 15:52:59;;;;;;;2.88;2.65;;;;;;;16.05;49.60;99958.25;10431147;28;20101;-80
2021/05/19 15:58:01;;;;;;;3.40;1.98;;;;;;;16.44;48.99;99956.13;10423002;28;20446;-83
2021/05/19 16:03:03;;;;;;;2.13;1.92;;;;;;;16.06;50.26;99954.66;10443159;28;20669;-82
2021/05/19 16:08:05;;;;;;;2.20;2.08;;;;;;;15.34;52.12;99955.03;10427493;28;20056;-81
2021/05/19 16:13:07;;;;;;;2.17;1.98;;;;;;;15.22;53.23;99959.19;10443534;28;20409;-81
2021/05/19 16:18:09;;;;;;;1.70;1.60;;;;;;;14.99;51.25;99962.16;10433382;28;20037;-81
2021/05/19 16:23:11;;;;;;;2.03;1.83;;;;;;;14.83;51.44;99957.66;10450982;28;20041;-82
2021/05/19 16:28:12;;;;;;;2.17;1.92;;;;;;;14.76;51.80;99971.25;10450126;28;20049;-83
2021/05/19 16:39:16;;;;;;;1.83;1.73;;;;;;;14.23;51.27;99966.78;10438954;28;20204;-83
2021/05/19 16:44:19;;;;;;;1.85;1.20;;;;;;;14.27;52.24;99965.72;10422337;28;20542;-82
2021/05/19 16:49:22;;;;;;;1.90;1.80;;;;;;;14.34;52.79;99969.75;10425450;28;20050;-84
2021/05/19 16:54:26;;;;;;;2.17;1.85;;;;;;;14.40;52.57;99966.81;10442986;28;20060;-82
2021/05/19 16:59:29;;;;;;;1.80;1.70;;;;;;;14.33;52.63;99973.34;10424045;28;20049;-82
2021/05/19 17:04:50;;;;;;;1.65;1.50;;;;;;;13.98;54.04;99980.28;10422925;28;20511;-81
2021/05/19 17:10:12;;;;;;;3.22;2.08;;;;;;;13.88;54.43;99979.88;10443743;28;20043;-83
2021/05/19 17:15:14;;;;;;;1.75;1.65;;;;;;;13.87;53.76;99975.50;10445071;28;20052;-80
2021/05/19 17:20:18;;;;;;;2.08;1.98;;;;;;;13.62;53.00;99984.53;10434231;28;20053;-81
2021/05/19 17:25:22;;;;;;;1.73;1.63;;;;;;;13.53;54.18;99984.97;10436367;28;20056;-80
2021/05/19 17:30:27;;;;;;;2.28;1.70;;;;;;;13.75;54.20;99989.28;10431675;28;20061;-82
2021/05/19 17:35:29;;;;;;;2.25;1.73;;;;;;;13.47;55.09;99994.94;10448571;28;20032;-81
2021/05/19 17:40:31;;;;;;;2.38;2.17;;;;;;;13.53;55.30;99992.88;10444324;28;20083;-82
2021/05/19 17:45:33;;;;;;;2.10;1.98;;;;;;;13.54;55.47;99989.31;10447123;28;20483;-81
2021/05/19 17:50:34;;;;;;;2.53;2.33;;;;;;;13.12;56.36;99990.25;10425720;28;20152;-82
2021/05/19 17:55:36;;;;;;;2.10;1.90;;;;;;;12.94;57.53;99982.25;10448546;28;20049;-82
2021/05/19 18:00:38;;;;;;;2.45;2.25;;;;;;;12.82;58.09;99983.63;10444375;28;20045;-83
2021/05/19 18:05:40;;;;;;;3.55;3.25;;;;;;;13.01;57.34;99986.34;10442307;28;20410;-83
2021/05/19 18:10:45;;;;;;;8.13;7.32;;;;;;;12.95;58.22;99992.72;10422415;28;20515;-82
2021/05/19 18:15:46;;;;;;;9.07;8.48;;;;;;;12.92;59.19;99995.50;10440897;28;20045;-84
2021/05/19 18:20:49;;;;;;;7.45;6.10;;;;;;;12.67;60.82;100003.59;10444418;28;20387;-85
2021/05/19 18:25:52;;;;;;;5.28;4.88;;;;;;;12.35;61.85;100005.75;10420752;28;20048;-83
2021/05/19 18:31:02;;;;;;;4.78;4.47;;;;;;;12.24;62.92;100007.91;10440921;28;20049;-81
2021/05/19 18:36:04;;;;;;;4.82;4.53;;;;;;;11.98;63.80;100011.56;10423024;28;20045;-84
2021/05/19 18:41:06;;;;;;;5.38;4.88;;;;;;;11.72;64.93;100023.03;10439426;22;20067;-82
2021/05/19 18:46:11;;;;;;;3.80;3.50;;;;;;;11.66;65.13;100025.88;10432117;28;20050;-83
2021/05/19 18:51:13;;;;;;;4.28;3.90;;;;;;;11.81;65.43;100029.72;10438042;28;20033;-83
2021/05/19 18:56:15;;;;;;;6.18;3.58;;;;;;;11.79;65.06;100037.69;10437991;28;20091;-83
2021/05/19 19:01:21;;;;;;;4.18;3.88;;;;;;;11.65;64.40;100039.97;10438474;28;20045;-84
2021/05/19 19:06:23;;;;;;;3.97;3.67;;;;;;;11.53;64.21;100037.78;10439874;28;20081;-82
2021/05/19 19:11:25;;;;;;;4.45;4.07;;;;;;;11.48;63.54;100040.56;10437627;28;20041;-82
2021/05/19 19:16:26;;;;;;;4.70;3.97;;;;;;;11.32;64.24;100039.38;10447912;28;20384;-82
2021/05/19 19:21:29;;;;;;;4.55;4.20;;;;;;;11.47;62.96;100044.13;10438926;28;20121;-83
2021/05/19 19:26:33;;;;;;;3.80;3.50;;;;;;;11.45;63.22;100045.94;10439297;28;20041;-82
2021/05/19 19:31:35;;;;;;;4.43;4.13;;;;;;;11.34;63.67;100050.72;10437231;28;20133;-82
2021/05/19 19:36:37;;;;;;;6.38;4.25;;;;;;;10.89;65.39;100061.88;10437243;28;20052;-81
2021/05/19 19:41:39;;;;;;;4.47;4.18;;;;;;;10.69;65.88;100069.53;10435842;28;20041;-82
2021/05/19 19:46:42;;;;;;;3.80;3.50;;;;;;;10.43;66.96;100076.47;10420186;28;20055;-81
2021/05/19 19:51:45;;;;;;;4.53;4.22;;;;;;;10.29;67.42;100071.63;10436927;28;20050;-81
2021/05/19 19:56:46;;;;;;;5.95;5.43;;;;;;;10.16;67.80;100069.38;10437182;28;20076;-81
2021/05/19 20:01:51;;;;;;;5.63;5.20;;;;;;;10.15;67.65;100070.28;10430555;28;20168;-81
2021/05/19 20:06:55;;;;;;;4.90;4.57;;;;;;;10.15;68.61;100070.28;10414409;28;20103;-81
2021/05/19 20:11:58;;;;;;;5.97;5.57;;;;;;;10.55;68.04;100077.88;10430121;28;20041;-81
2021/05/19 20:17:00;;;;;;;5.55;5.15;;;;;;;10.17;69.13;100089.50;10435343;28;20050;-81
2021/05/19 20:22:01;;;;;;;5.95;5.45;;;;;;;9.78;70.15;100094.94;10442734;28;20049;-81
2021/05/19 20:27:03;;;;;;;5.70;5.18;;;;;;;9.76;70.57;100096.78;10444955;28;20042;-81
2021/05/19 20:32:05;;;;;;;6.07;5.57;;;;;;;9.78;70.67;100095.84;10443349;28;20041;-81
2021/05/19 20:37:07;;;;;;;6.28;5.78;;;;;;;10.17;69.54;100097.38;10438721;28;20049;-82
2021/05/19 20:42:08;;;;;;;6.13;5.63;;;;;;;9.90;69.47;100099.03;10435930;28;20049;-80
2021/05/19 20:47:10;;;;;;;5.20;4.88;;;;;;;9.58;70.32;100100.75;10455706;28;20065;-80
2021/05/19 20:52:12;;;;;;;5.28;4.88;;;;;;;9.46;70.65;100106.31;10455254;28;20137;-81
2021/05/19 20:57:14;;;;;;;5.97;5.50;;;;;;;9.23;71.57;100105.16;10440923;28;20514;-81
2021/05/19 21:02:15;;;;;;;5.25;4.82;;;;;;;9.26;71.92;100107.72;10433906;28;20406;-81
2021/05/19 21:07:17;;;;;;;6.28;5.80;;;;;;;9.28;71.77;100118.16;10433520;28;20053;-82
2021/05/19 21:12:19;;;;;;;7.18;6.68;;;;;;;9.35;71.05;100117.09;10432682;28;20049;-82
2021/05/19 21:17:22;;;;;;;5.82;5.43;;;;;;;9.68;70.88;100119.75;10432847;28;20140;-82
2021/05/19 21:22:24;;;;;;;5.18;4.65;;;;;;;10.08;68.18;100122.13;10432667;28;20042;-82
2021/05/19 21:27:26;;;;;;;5.93;5.43;;;;;;;10.01;68.45;100116.19;10439838;28;20041;-81
2021/05/19 21:32:28;;;;;;;5.97;5.57;;;;;;;9.93;69.41;100110.31;10442007;28;20049;-81
2021/05/19 21:37:29;;;;;;;5.40;5.00;;;;;;;9.71;70.71;100114.41;10442281;28;20476;-82
2021/05/19 21:42:31;;;;;;;4.72;4.43;;;;;;;9.63;70.81;100111.13;10438046;28;20490;-83
2021/05/19 21:47:33;;;;;;;4.95;4.40;;;;;;;9.59;70.33;100115.59;10437178;28;20410;-81
2021/05/19 21:52:35;;;;;;;4.15;3.83;;;;;;;9.56;69.98;100115.66;10439768;28;20506;-82
2021/05/19 21:57:36;;;;;;;4.30;3.85;;;;;;;9.76;69.59;100112.53;10442664;28;20514;-82
2021/05/19 22:02:38;;;;;;;7.65;4.78;;;;;;;9.58;70.60;100125.22;10441067;28;20060;-81
2021/05/19 22:07:40;;;;;;;5.75;4.68;;;;;;;9.68;70.93;100127.63;10441980;28;20049;-81
2021/05/19 22:12:41;;;;;;;5.22;4.82;;;;;;;9.45;71.71;100118.59;10440707;28;20041;-82
2021/05/19 22:17:46;;;;;;;5.55;5.05;;;;;;;9.31;72.45;100120.69;10447440;28;20148;-81
2021/05/19 22:27:52;;;;;;;6.35;5.85;;;;;;;9.22;72.67;100127.03;10454459;28;20502;-81
2021/05/19 22:32:53;;;;;;;5.55;5.10;;;;;;;9.25;72.70;100126.97;10450644;28;20055;-81
2021/05/19 22:37:55;;;;;;;6.35;5.95;;;;;;;9.20;72.66;100127.97;10443862;28;20065;-81
2021/05/19 22:42:57;;;;;;;6.38;5.88;;;;;;;9.32;72.34;100123.28;10440823;28;20406;-81
2021/05/19 22:47:58;;;;;;;6.50;6.00;;;;;;;9.34;72.08;100125.84;10443542;28;20080;-82
2021/05/19 22:53:00;;;;;;;6.07;5.57;;;;;;;9.74;71.26;100130.06;10442133;28;20049;-81
2021/05/19 22:58:02;;;;;;;5.78;5.30;;;;;;;9.35;72.47;100135.47;10439302;28;20057;-81
2021/05/19 23:03:07;;;;;;;5.82;5.43;;;;;;;9.20;72.73;100133.22;10437065;28;20034;-81
2021/05/19 23:08:09;;;;;;;6.32;5.88;;;;;;;9.29;72.91;100132.97;10437157;28;20045;-80
2021/05/19 23:13:10;;;;;;;6.95;5.30;;;;;;;9.72;71.28;100129.25;10436355;28;20076;-80
2021/05/19 23:18:12;;;;;;;6.25;5.82;;;;;;;9.63;71.80;100133.00;10435423;28;20048;-82
2021/05/19 23:23:15;;;;;;;5.90;5.40;;;;;;;9.52;71.86;100130.66;10434636;28;20120;-81
2021/05/19 23:28:16;;;;;;;6.82;6.15;;;;;;;9.37;72.85;100119.69;10448750;28;20064;-80
2021/05/19 23:33:18;;;;;;;6.07;5.57;;;;;;;9.08;73.71;100116.03;10440764;28;20080;-81
2021/05/19 23:38:20;;;;;;;6.50;5.90;;;;;;;9.05;74.18;100135.31;10453825;28;20050;-81
2021/05/19 23:43:22;;;;;;;5.38;5.00;;;;;;;9.20;73.63;100135.84;10438027;28;20472;-81
2021/05/19 23:48:24;;;;;;;6.13;5.57;;;;;;;9.26;73.61;100139.19;10436738;28;20099;-80
2021/05/19 23:53:25;;;;;;;5.55;5.10;;;;;;;9.11;73.74;100142.16;10432633;28;20052;-80
2021/05/19 23:58:27;;;;;;;6.60;6.07;;;;;;;9.50;72.33;100142.06;10433654;28;20073;-81
